KBTR/BTR METAR and TAF weather

Enter ICAO airport designator
Station Type Date Time Source
KBTR METAR 2019/10/23 12:53 UTC NOAA

KBTR 231253Z 00000KT 10SM CLR 09/07 A3019 RMK AO2 SLP221 T00940072


Station Type Date Time Source
KBTR Decoded METAR 2019/10/23 12:53 UTC NOAA

BATON ROUGE METRO RYAN FIELD, LA, United States (KBTR) 30-32N 91-09W 21M
Oct 23, 2019 - 08:53 AM EDT / 2019.10.23 1253 UTC
Wind: Calm:0
Visibility: 10 mile(s):0
Sky conditions: clear
Temperature: 48.9 F (9.4 C)
Dew Point: 45.0 F (7.2 C)
Relative Humidity: 86%
Pressure (altimeter): 30.19 in. Hg (1022 hPa)
ob: KBTR 231253Z 00000KT 10SM CLR 09/07 A3019 RMK AO2 SLP221 T00940072
cycle: 13

Station Type Date Time Source
KBTR TAF 2019/10/23 12:22 UTC NOAA

TAF KBTR 231120Z 2312/2412 03003KT P6SM SKC
FM231700 09005KT P6SM SKC

Example: see airport list